Vintage — FAE2136 — position and weather

sailwx.info

Track history (hours):
 
Tides and Currents Weather Stations Pressure Air Temp Water Temp Dewpoint Dewpoint Depression Visibility Wind Speed Wind Dir Waves Ship Positions

Vintage

Last reported at 2017-Aug-20 16:07 UTC. Time now 2017-Sep-26 18:37 UTC.
Position N 46°26' W 001°41'.
Warning: this ship's position is 37 days out of date.

Length 15 m.

Type: Sailing vessel. MMSI: 227454340.

Date/timePositionNaut miles runAvg speedWind from/ knotsBaromVisibWave heightAir tempDewpointWater temp
2017-Aug-20 16:07N 46°26' W 001°41'1 6.4
2017-Aug-20 16:00N 46°26' W 001°42'4 7.7
2017-Aug-20 15:30N 46°28' W 001°46'1 2.1
2017-Aug-20 14:58N 46°29' W 001°47'0 0.2
2017-Aug-20 14:30N 46°29' W 001°47'3 7.0
2017-Aug-20 14:00N 46°27' W 001°44'2 0.1
2017-Aug-19 16:27N 46°26' W 001°41'3 5.5
2017-Aug-19 15:59N 46°24' W 001°40'2 4.5
2017-Aug-19 15:30N 46°22' W 001°38'  
2017-Aug-17 09:05N 46°23' W 001°37'1 7.7
2017-Aug-17 09:00N 46°24' W 001°37'4 7.2
2017-Aug-17 08:30N 46°26' W 001°42'4 8.0
2017-Aug-17 08:00N 46°28' W 001°46'2 3.7
2017-Aug-17 07:29N 46°30' W 001°48'0 0.0
2017-Aug-17 06:59N 46°30' W 001°48'0 0.0
2017-Aug-17 06:29N 46°30' W 001°48'0 0.0
2017-Aug-17 05:59N 46°30' W 001°48'0 0.0
2017-Aug-17 05:29N 46°30' W 001°48'0 0.0
2017-Aug-17 04:59N 46°30' W 001°48'0 0.0
2017-Aug-17 04:29N 46°30' W 001°48'0 0.0
2017-Aug-17 03:59N 46°30' W 001°48'0 0.0
2017-Aug-17 03:29N 46°30' W 001°48'0 0.0
2017-Aug-17 02:59N 46°30' W 001°48'0 0.0
2017-Aug-17 02:29N 46°30' W 001°48'0 0.0
2017-Aug-17 01:59N 46°30' W 001°48'0 0.0
2017-Aug-17 01:29N 46°30' W 001°48'0 0.0
2017-Aug-17 00:59N 46°30' W 001°48'0 0.0
2017-Aug-17 00:29N 46°30' W 001°48'0 0.0
2017-Aug-16 23:59N 46°30' W 001°48'0 0.0
2017-Aug-16 23:29N 46°30' W 001°48'0 0.0
2017-Aug-16 22:59N 46°30' W 001°48'0 0.0
2017-Aug-16 22:29N 46°30' W 001°48'0 0.0
2017-Aug-16 21:59N 46°30' W 001°48'0 0.0
2017-Aug-16 21:29N 46°30' W 001°48'0 0.0
2017-Aug-16 20:59N 46°30' W 001°48'0 0.0
2017-Aug-16 20:29N 46°30' W 001°48'0 0.0
2017-Aug-16 19:59N 46°30' W 001°48'0 0.0
2017-Aug-16 19:29N 46°30' W 001°48'0 0.0
2017-Aug-16 18:59N 46°30' W 001°48'0 0.0
2017-Aug-16 18:29N 46°30' W 001°48'0 0.0
2017-Aug-16 17:59N 46°30' W 001°48'0 0.0
2017-Aug-16 17:29N 46°30' W 001°48'0 0.0
2017-Aug-16 16:59N 46°30' W 001°48'0 0.0
2017-Aug-16 16:29N 46°30' W 001°48'0 0.0
2017-Aug-16 15:59N 46°30' W 001°48'0 0.0
2017-Aug-16 15:29N 46°30' W 001°48'0 0.0
2017-Aug-16 14:59N 46°30' W 001°48'0 0.0
2017-Aug-16 14:29N 46°30' W 001°48'0 0.0
2017-Aug-16 13:59N 46°30' W 001°48'0 0.0
2017-Aug-16 13:29N 46°30' W 001°48'0 1.1
2017-Aug-16 13:00N 46°29' W 001°47'2 4.3
2017-Aug-16 12:30N 46°29' W 001°51'3 5.1
2017-Aug-16 12:00N 46°31' W 001°52'3 6.4
2017-Aug-16 11:30N 46°33' W 001°55'3 6.2
2017-Aug-16 10:58N 46°36' W 001°59'17 0.6
2017-Aug-15 06:29N 46°44' W 002°21'0 0.0
2017-Aug-15 05:47N 46°44' W 002°21'0 0.0
2017-Aug-15 05:26N 46°44' W 002°21'0 0.0
2017-Aug-15 04:56N 46°44' W 002°21'0 0.0
2017-Aug-15 04:29N 46°44' W 002°21'0 0.0
2017-Aug-15 03:59N 46°44' W 002°21'0 0.0
2017-Aug-15 03:29N 46°44' W 002°21'0 0.0
2017-Aug-15 02:59N 46°44' W 002°21'0 0.0
2017-Aug-15 02:29N 46°44' W 002°21'16 0.5
2017-Aug-13 14:18N 46°42' W 001°57'1 4.9
2017-Aug-13 14:00N 46°41' W 001°58'1 2.7
2017-Aug-13 13:30N 46°39' W 001°57'2 3.6
2017-Aug-13 13:00N 46°38' W 001°55'3 5.6
2017-Aug-13 12:30N 46°35' W 001°55'3 5.3
2017-Aug-13 12:00N 46°33' W 001°54'3 5.1
2017-Aug-13 11:30N 46°30' W 001°52'2 4.9
2017-Aug-13 11:00N 46°29' W 001°50'3 5.4
2017-Aug-13 10:30N 46°27' W 001°46'3 5.5
2017-Aug-13 10:00N 46°26' W 001°42'1 0.0
2017-Aug-11 14:55N 46°26' W 001°41'3 3.5
2017-Aug-11 14:00N 46°23' W 001°39'1 2.8
2017-Aug-11 13:30N 46°23' W 001°37'3 5.7
2017-Aug-11 12:59N 46°20' W 001°37'15 4.1
2017-Aug-11 09:21N 46°13' W 001°19'1 3.7
2017-Aug-11 08:58N 46°12' W 001°17'1 2.9
2017-Aug-11 08:27N 46°11' W 001°16'1 2.6
2017-Aug-11 08:00N 46°10' W 001°15'1 2.5
2017-Aug-11 07:30N 46°09' W 001°14'2 4.3
2017-Aug-11 07:00N 46°09' W 001°11'1 2.3
2017-Aug-11 06:29N 46°09' W 001°09'0 0.0
2017-Aug-11 05:59N 46°09' W 001°09'0 0.0
2017-Aug-11 05:29N 46°09' W 001°09'0 0.0
2017-Aug-11 04:59N 46°09' W 001°09'0 0.0
2017-Aug-11 04:29N 46°09' W 001°09'0 0.0
2017-Aug-11 04:00N 46°09' W 001°09'0 0.0
2017-Aug-11 03:29N 46°09' W 001°09'0 0.0
2017-Aug-11 02:59N 46°09' W 001°09'0 0.0
2017-Aug-11 02:29N 46°09' W 001°09'0 0.0
2017-Aug-11 01:59N 46°09' W 001°09'0 0.0
2017-Aug-11 01:29N 46°09' W 001°09'0 0.0
2017-Aug-11 00:59N 46°09' W 001°09'0 0.0
2017-Aug-11 00:29N 46°09' W 001°09'0 0.0
2017-Aug-10 23:59N 46°09' W 001°09'0 0.0
2017-Aug-10 23:29N 46°09' W 001°09'0 0.0
2017-Aug-10 22:59N 46°09' W 001°09'0 0.0
2017-Aug-10 22:29N 46°09' W 001°09'0 0.0
2017-Aug-10 22:00N 46°09' W 001°09'0 0.0
2017-Aug-10 21:30N 46°09' W 001°09'0 0.0
2017-Aug-10 20:59N 46°09' W 001°09'0 0.0
2017-Aug-10 20:29N 46°09' W 001°09'0 0.0
2017-Aug-10 19:59N 46°09' W 001°09'0 0.0
2017-Aug-10 19:29N 46°09' W 001°09'0 0.0
2017-Aug-10 18:59N 46°09' W 001°09'0 0.0
2017-Aug-10 18:29N 46°09' W 001°09'0 0.0
2017-Aug-10 17:59N 46°09' W 001°09'0 0.0
2017-Aug-10 17:30N 46°09' W 001°09'0 0.0
2017-Aug-10 16:59N 46°09' W 001°09'0 0.0
2017-Aug-10 16:29N 46°09' W 001°09'  
Track history (hours):
 
Tides and Currents Weather Stations Pressure Air Temp Water Temp Dewpoint Dewpoint Depression Visibility Wind Speed Wind Dir Waves Ship Positions

Vintage

Last reported at 2017-Aug-20 16:07 UTC. Time now 2017-Sep-26 18:37 UTC.
Position N 46°26' W 001°41'.
Warning: this ship's position is 37 days out of date.

Length 15 m.

Type: Sailing vessel. MMSI: 227454340.

Date/timePositionNaut miles runAvg speedWind from/ knotsBaromVisibWave heightAir tempDewpointWater temp
2017-Aug-20 16:07N 46°26' W 001°41'1 6.4
2017-Aug-20 16:00N 46°26' W 001°42'4 7.7
2017-Aug-20 15:30N 46°28' W 001°46'1 2.1
2017-Aug-20 14:58N 46°29' W 001°47'0 0.2
2017-Aug-20 14:30N 46°29' W 001°47'3 7.0
2017-Aug-20 14:00N 46°27' W 001°44'2 0.1
2017-Aug-19 16:27N 46°26' W 001°41'3 5.5
2017-Aug-19 15:59N 46°24' W 001°40'2 4.5
2017-Aug-19 15:30N 46°22' W 001°38'  
2017-Aug-17 09:05N 46°23' W 001°37'1 7.7
2017-Aug-17 09:00N 46°24' W 001°37'4 7.2
2017-Aug-17 08:30N 46°26' W 001°42'4 8.0
2017-Aug-17 08:00N 46°28' W 001°46'2 3.7
2017-Aug-17 07:29N 46°30' W 001°48'0 0.0
2017-Aug-17 06:59N 46°30' W 001°48'0 0.0
2017-Aug-17 06:29N 46°30' W 001°48'0 0.0
2017-Aug-17 05:59N 46°30' W 001°48'0 0.0
2017-Aug-17 05:29N 46°30' W 001°48'0 0.0
2017-Aug-17 04:59N 46°30' W 001°48'0 0.0
2017-Aug-17 04:29N 46°30' W 001°48'0 0.0
2017-Aug-17 03:59N 46°30' W 001°48'0 0.0
2017-Aug-17 03:29N 46°30' W 001°48'0 0.0
2017-Aug-17 02:59N 46°30' W 001°48'0 0.0
2017-Aug-17 02:29N 46°30' W 001°48'0 0.0
2017-Aug-17 01:59N 46°30' W 001°48'0 0.0
2017-Aug-17 01:29N 46°30' W 001°48'0 0.0
2017-Aug-17 00:59N 46°30' W 001°48'0 0.0
2017-Aug-17 00:29N 46°30' W 001°48'0 0.0
2017-Aug-16 23:59N 46°30' W 001°48'0 0.0
2017-Aug-16 23:29N 46°30' W 001°48'0 0.0
2017-Aug-16 22:59N 46°30' W 001°48'0 0.0
2017-Aug-16 22:29N 46°30' W 001°48'0 0.0
2017-Aug-16 21:59N 46°30' W 001°48'0 0.0
2017-Aug-16 21:29N 46°30' W 001°48'0 0.0
2017-Aug-16 20:59N 46°30' W 001°48'0 0.0
2017-Aug-16 20:29N 46°30' W 001°48'0 0.0
2017-Aug-16 19:59N 46°30' W 001°48'0 0.0
2017-Aug-16 19:29N 46°30' W 001°48'0 0.0
2017-Aug-16 18:59N 46°30' W 001°48'0 0.0
2017-Aug-16 18:29N 46°30' W 001°48'0 0.0
2017-Aug-16 17:59N 46°30' W 001°48'0 0.0
2017-Aug-16 17:29N 46°30' W 001°48'0 0.0
2017-Aug-16 16:59N 46°30' W 001°48'0 0.0
2017-Aug-16 16:29N 46°30' W 001°48'0 0.0
2017-Aug-16 15:59N 46°30' W 001°48'0 0.0
2017-Aug-16 15:29N 46°30' W 001°48'0 0.0
2017-Aug-16 14:59N 46°30' W 001°48'0 0.0
2017-Aug-16 14:29N 46°30' W 001°48'0 0.0
2017-Aug-16 13:59N 46°30' W 001°48'0 0.0
2017-Aug-16 13:29N 46°30' W 001°48'0 1.1
2017-Aug-16 13:00N 46°29' W 001°47'2 4.3
2017-Aug-16 12:30N 46°29' W 001°51'3 5.1
2017-Aug-16 12:00N 46°31' W 001°52'3 6.4
2017-Aug-16 11:30N 46°33' W 001°55'3 6.2
2017-Aug-16 10:58N 46°36' W 001°59'17 0.6
2017-Aug-15 06:29N 46°44' W 002°21'0 0.0
2017-Aug-15 05:47N 46°44' W 002°21'0 0.0
2017-Aug-15 05:26N 46°44' W 002°21'0 0.0
2017-Aug-15 04:56N 46°44' W 002°21'0 0.0
2017-Aug-15 04:29N 46°44' W 002°21'0 0.0
2017-Aug-15 03:59N 46°44' W 002°21'0 0.0
2017-Aug-15 03:29N 46°44' W 002°21'0 0.0
2017-Aug-15 02:59N 46°44' W 002°21'0 0.0
2017-Aug-15 02:29N 46°44' W 002°21'16 0.5
2017-Aug-13 14:18N 46°42' W 001°57'1 4.9
2017-Aug-13 14:00N 46°41' W 001°58'1 2.7
2017-Aug-13 13:30N 46°39' W 001°57'2 3.6
2017-Aug-13 13:00N 46°38' W 001°55'3 5.6
2017-Aug-13 12:30N 46°35' W 001°55'3 5.3
2017-Aug-13 12:00N 46°33' W 001°54'3 5.1
2017-Aug-13 11:30N 46°30' W 001°52'2 4.9
2017-Aug-13 11:00N 46°29' W 001°50'3 5.4
2017-Aug-13 10:30N 46°27' W 001°46'3 5.5
2017-Aug-13 10:00N 46°26' W 001°42'1 0.0
2017-Aug-11 14:55N 46°26' W 001°41'3 3.5
2017-Aug-11 14:00N 46°23' W 001°39'1 2.8
2017-Aug-11 13:30N 46°23' W 001°37'3 5.7
2017-Aug-11 12:59N 46°20' W 001°37'15 4.1
2017-Aug-11 09:21N 46°13' W 001°19'1 3.7
2017-Aug-11 08:58N 46°12' W 001°17'1 2.9
2017-Aug-11 08:27N 46°11' W 001°16'1 2.6
2017-Aug-11 08:00N 46°10' W 001°15'1 2.5
2017-Aug-11 07:30N 46°09' W 001°14'2 4.3
2017-Aug-11 07:00N 46°09' W 001°11'1 2.3
2017-Aug-11 06:29N 46°09' W 001°09'0 0.0
2017-Aug-11 05:59N 46°09' W 001°09'0 0.0
2017-Aug-11 05:29N 46°09' W 001°09'0 0.0
2017-Aug-11 04:59N 46°09' W 001°09'0 0.0
2017-Aug-11 04:29N 46°09' W 001°09'0 0.0
2017-Aug-11 04:00N 46°09' W 001°09'0 0.0
2017-Aug-11 03:29N 46°09' W 001°09'0 0.0
2017-Aug-11 02:59N 46°09' W 001°09'0 0.0
2017-Aug-11 02:29N 46°09' W 001°09'0 0.0
2017-Aug-11 01:59N 46°09' W 001°09'0 0.0
2017-Aug-11 01:29N 46°09' W 001°09'0 0.0
2017-Aug-11 00:59N 46°09' W 001°09'0 0.0
2017-Aug-11 00:29N 46°09' W 001°09'0 0.0
2017-Aug-10 23:59N 46°09' W 001°09'0 0.0
2017-Aug-10 23:29N 46°09' W 001°09'0 0.0
2017-Aug-10 22:59N 46°09' W 001°09'0 0.0
2017-Aug-10 22:29N 46°09' W 001°09'0 0.0
2017-Aug-10 22:00N 46°09' W 001°09'0 0.0
2017-Aug-10 21:30N 46°09' W 001°09'0 0.0
2017-Aug-10 20:59N 46°09' W 001°09'0 0.0
2017-Aug-10 20:29N 46°09' W 001°09'0 0.0
2017-Aug-10 19:59N 46°09' W 001°09'0 0.0
2017-Aug-10 19:29N 46°09' W 001°09'0 0.0
2017-Aug-10 18:59N 46°09' W 001°09'0 0.0
2017-Aug-10 18:29N 46°09' W 001°09'0 0.0
2017-Aug-10 17:59N 46°09' W 001°09'0 0.0
2017-Aug-10 17:30N 46°09' W 001°09'0 0.0
2017-Aug-10 16:59N 46°09' W 001°09'0 0.0
2017-Aug-10 16:29N 46°09' W 001°09'  

Dump ship's entire track history